sensor_id;sensor_type;location;lat;lon;timestamp;temperature;humidity
66920;DHT22;53831;52.090;17.026;2023-04-03T00:00:04;1.00;99.90
66920;DHT22;53831;52.090;17.026;2023-04-03T00:05:07;0.90;99.90
66920;DHT22;53831;52.090;17.026;2023-04-03T00:10:08;0.80;99.90
66920;DHT22;53831;52.090;17.026;2023-04-03T00:15:09;0.80;99.90
66920;DHT22;53831;52.090;17.026;2023-04-03T00:20:10;0.80;99.90
66920;DHT22;53831;52.090;17.026;2023-04-03T00:25:10;0.80;99.90
66920;DHT22;53831;52.090;17.026;2023-04-03T00:30:13;0.70;99.90
66920;DHT22;53831;52.090;17.026;2023-04-03T00:35:15;0.60;99.90
66920;DHT22;53831;52.090;17.026;2023-04-03T00:40:16;0.70;99.90
66920;DHT22;53831;52.090;17.026;2023-04-03T00:45:23;0.60;99.90
66920;DHT22;53831;52.090;17.026;2023-04-03T00:50:29;0.70;99.90
66920;DHT22;53831;52.090;17.026;2023-04-03T00:55:30;0.60;99.90
66920;DHT22;53831;52.090;17.026;2023-04-03T01:00:32;0.60;99.90
66920;DHT22;53831;52.090;17.026;2023-04-03T01:05:33;0.50;99.90
66920;DHT22;53831;52.090;17.026;2023-04-03T01:10:34;0.60;99.90
66920;DHT22;53831;52.090;17.026;2023-04-03T01:15:35;0.50;99.90
66920;DHT22;53831;52.090;17.026;2023-04-03T01:20:40;0.40;99.90
66920;DHT22;53831;52.090;17.026;2023-04-03T01:25:48;0.30;99.90
66920;DHT22;53831;52.090;17.026;2023-04-03T01:36:30;0.20;99.90
66920;DHT22;53831;52.090;17.026;2023-04-03T01:41:32;0.30;99.90
66920;DHT22;53831;52.090;17.026;2023-04-03T01:46:38;0.20;99.90
66920;DHT22;53831;52.090;17.026;2023-04-03T01:51:39;0.30;99.90
66920;DHT22;53831;52.090;17.026;2023-04-03T01:56:40;0.30;99.90
66920;DHT22;53831;52.090;17.026;2023-04-03T02:01:42;0.20;99.90
66920;DHT22;53831;52.090;17.026;2023-04-03T02:06:45;0.10;99.90
66920;DHT22;53831;52.090;17.026;2023-04-03T02:11:46;0.10;99.90
66920;DHT22;53831;52.090;17.026;2023-04-03T02:16:47;0.10;99.90
66920;DHT22;53831;52.090;17.026;2023-04-03T02:21:48;0.10;99.90
66920;DHT22;53831;52.090;17.026;2023-04-03T02:26:49;0.00;99.90
66920;DHT22;53831;52.090;17.026;2023-04-03T02:31:50;0.00;99.90
66920;DHT22;53831;52.090;17.026;2023-04-03T02:36:51;0.00;99.90
66920;DHT22;53831;52.090;17.026;2023-04-03T02:41:53;0.10;99.90
66920;DHT22;53831;52.090;17.026;2023-04-03T02:46:57;-0.10;99.90
66920;DHT22;53831;52.090;17.026;2023-04-03T02:51:58;0.00;99.90
66920;DHT22;53831;52.090;17.026;2023-04-03T02:56:58;-0.10;99.90
66920;DHT22;53831;52.090;17.026;2023-04-03T03:01:59;-0.20;99.90
66920;DHT22;53831;52.090;17.026;2023-04-03T03:07:00;-0.20;99.90
66920;DHT22;53831;52.090;17.026;2023-04-03T03:12:03;-0.30;99.90
66920;DHT22;53831;52.090;17.026;2023-04-03T03:17:04;-0.30;99.90
66920;DHT22;53831;52.090;17.026;2023-04-03T03:22:04;-0.40;99.90
66920;DHT22;53831;52.090;17.026;2023-04-03T03:27:05;-0.40;99.90
66920;DHT22;53831;52.090;17.026;2023-04-03T03:32:06;-0.50;99.90
66920;DHT22;53831;52.090;17.026;2023-04-03T03:37:07;-0.50;99.90
66920;DHT22;53831;52.090;17.026;2023-04-03T03:42:08;-0.60;99.90
66920;DHT22;53831;52.090;17.026;2023-04-03T03:47:09;-0.60;99.90
66920;DHT22;53831;52.090;17.026;2023-04-03T03:52:11;-0.60;99.90
66920;DHT22;53831;52.090;17.026;2023-04-03T03:57:12;-0.60;99.90
66920;DHT22;53831;52.090;17.026;2023-04-03T04:02:13;-0.70;99.90
66920;DHT22;53831;52.090;17.026;2023-04-03T04:07:16;-0.70;99.90
66920;DHT22;53831;52.090;17.026;2023-04-03T04:12:17;-0.70;99.90
66920;DHT22;53831;52.090;17.026;2023-04-03T04:17:18;-0.80;99.90
66920;DHT22;53831;52.090;17.026;2023-04-03T04:22:19;-0.80;99.90
66920;DHT22;53831;52.090;17.026;2023-04-03T04:27:20;-0.90;99.90
66920;DHT22;53831;52.090;17.026;2023-04-03T04:32:22;-0.90;99.90
66920;DHT22;53831;52.090;17.026;2023-04-03T04:37:23;-0.90;99.90
66920;DHT22;53831;52.090;17.026;2023-04-03T04:42:24;-0.80;99.90
66920;DHT22;53831;52.090;17.026;2023-04-03T04:47:25;-0.80;99.90
66920;DHT22;53831;52.090;17.026;2023-04-03T04:52:26;-0.70;99.90
66920;DHT22;53831;52.090;17.026;2023-04-03T04:57:27;-0.70;99.90
66920;DHT22;53831;52.090;17.026;2023-04-03T05:02:28;-0.60;99.90
66920;DHT22;53831;52.090;17.026;2023-04-03T05:07:30;-0.50;99.90
66920;DHT22;53831;52.090;17.026;2023-04-03T05:12:31;-0.50;99.90
66920;DHT22;53831;52.090;17.026;2023-04-03T05:17:34;-0.40;99.90
66920;DHT22;53831;52.090;17.026;2023-04-03T05:22:36;-0.30;99.90
66920;DHT22;53831;52.090;17.026;2023-04-03T05:27:40;-0.20;99.90
66920;DHT22;53831;52.090;17.026;2023-04-03T05:32:41;-0.10;99.90
66920;DHT22;53831;52.090;17.026;2023-04-03T05:37:48;0.00;99.90
66920;DHT22;53831;52.090;17.026;2023-04-03T05:42:49;0.10;99.90
66920;DHT22;53831;52.090;17.026;2023-04-03T05:47:51;0.30;99.90
66920;DHT22;53831;52.090;17.026;2023-04-03T05:52:52;0.40;99.90
66920;DHT22;53831;52.090;17.026;2023-04-03T05:57:57;0.50;99.90
66920;DHT22;53831;52.090;17.026;2023-04-03T06:02:58;0.60;99.90
66920;DHT22;53831;52.090;17.026;2023-04-03T06:07:59;0.70;99.90
66920;DHT22;53831;52.090;17.026;2023-04-03T06:13:00;0.90;99.90
66920;DHT22;53831;52.090;17.026;2023-04-03T06:18:01;1.10;99.90
66920;DHT22;53831;52.090;17.026;2023-04-03T06:23:02;1.30;99.90
66920;DHT22;53831;52.090;17.026;2023-04-03T06:28:03;1.40;99.90
66920;DHT22;53831;52.090;17.026;2023-04-03T06:33:03;1.50;99.90
66920;DHT22;53831;52.090;17.026;2023-04-03T06:38:04;1.60;99.90
66920;DHT22;53831;52.090;17.026;2023-04-03T06:43:09;1.70;99.90
66920;DHT22;53831;52.090;17.026;2023-04-03T06:48:10;1.80;99.90
66920;DHT22;53831;52.090;17.026;2023-04-03T06:53:10;1.90;99.90
66920;DHT22;53831;52.090;17.026;2023-04-03T06:58:12;2.10;99.90
66920;DHT22;53831;52.090;17.026;2023-04-03T07:03:13;2.30;99.90
66920;DHT22;53831;52.090;17.026;2023-04-03T07:08:14;2.30;99.90
66920;DHT22;53831;52.090;17.026;2023-04-03T07:13:15;2.40;99.90
66920;DHT22;53831;52.090;17.026;2023-04-03T07:18:16;2.30;99.90
66920;DHT22;53831;52.090;17.026;2023-04-03T07:23:20;2.40;99.90
66920;DHT22;53831;52.090;17.026;2023-04-03T07:28:21;2.70;99.90
66920;DHT22;53831;52.090;17.026;2023-04-03T07:33:22;2.80;99.90
66920;DHT22;53831;52.090;17.026;2023-04-03T07:38:24;2.80;99.90
66920;DHT22;53831;52.090;17.026;2023-04-03T07:43:25;2.90;99.90
66920;DHT22;53831;52.090;17.026;2023-04-03T07:48:25;3.20;99.90
66920;DHT22;53831;52.090;17.026;2023-04-03T07:53:27;3.40;99.90
66920;DHT22;53831;52.090;17.026;2023-04-03T07:58:29;3.60;99.90
66920;DHT22;53831;52.090;17.026;2023-04-03T08:03:30;3.60;99.90
66920;DHT22;53831;52.090;17.026;2023-04-03T08:08:30;3.70;99.90
66920;DHT22;53831;52.090;17.026;2023-04-03T08:13:33;3.60;99.90
66920;DHT22;53831;52.090;17.026;2023-04-03T08:18:35;3.30;99.90
66920;DHT22;53831;52.090;17.026;2023-04-03T08:23:36;3.40;99.90
66920;DHT22;53831;52.090;17.026;2023-04-03T08:28:37;3.60;99.90
66920;DHT22;53831;52.090;17.026;2023-04-03T08:34:58;3.50;99.90
66920;DHT22;53831;52.090;17.026;2023-04-03T08:41:25;4.00;99.90
66920;DHT22;53831;52.090;17.026;2023-04-03T08:47:51;3.60;99.90
66920;DHT22;53831;52.090;17.026;2023-04-03T08:54:07;4.20;99.90
66920;DHT22;53831;52.090;17.026;2023-04-03T09:00:37;5.10;99.90
66920;DHT22;53831;52.090;17.026;2023-04-03T09:06:57;4.60;99.90
66920;DHT22;53831;52.090;17.026;2023-04-03T09:13:29;4.70;99.90
66920;DHT22;53831;52.090;17.026;2023-04-03T09:20:26;4.50;99.90
66920;DHT22;53831;52.090;17.026;2023-04-03T09:26:56;5.20;99.90
66920;DHT22;53831;52.090;17.026;2023-04-03T09:33:16;5.00;99.90
66920;DHT22;53831;52.090;17.026;2023-04-03T09:39:51;4.60;99.90
66920;DHT22;53831;52.090;17.026;2023-04-03T09:46:31;4.40;99.90
66920;DHT22;53831;52.090;17.026;2023-04-03T09:52:51;4.40;99.90
66920;DHT22;53831;52.090;17.026;2023-04-03T09:59:14;4.80;99.90
66920;DHT22;53831;52.090;17.026;2023-04-03T10:05:36;4.60;99.90
66920;DHT22;53831;52.090;17.026;2023-04-03T10:11:58;4.90;99.90
66920;DHT22;53831;52.090;17.026;2023-04-03T10:25:03;6.40;99.90
66920;DHT22;53831;52.090;17.026;2023-04-03T10:31:44;6.30;99.90
66920;DHT22;53831;52.090;17.026;2023-04-03T10:38:18;5.50;99.90
66920;DHT22;53831;52.090;17.026;2023-04-03T10:44:42;5.60;99.90
66920;DHT22;53831;52.090;17.026;2023-04-03T10:51:13;5.80;99.90
66920;DHT22;53831;52.090;17.026;2023-04-03T10:57:29;5.70;99.90
66920;DHT22;53831;52.090;17.026;2023-04-03T11:03:55;5.40;99.90
66920;DHT22;53831;52.090;17.026;2023-04-03T11:10:17;5.20;99.90
66920;DHT22;53831;52.090;17.026;2023-04-03T11:16:46;6.30;99.90
66920;DHT22;53831;52.090;17.026;2023-04-03T11:23:21;6.70;99.90
66920;DHT22;53831;52.090;17.026;2023-04-03T11:29:38;6.00;99.90
66920;DHT22;53831;52.090;17.026;2023-04-03T11:36:02;6.10;99.90
66920;DHT22;53831;52.090;17.026;2023-04-03T11:42:33;6.70;99.90
66920;DHT22;53831;52.090;17.026;2023-04-03T11:48:49;6.20;99.90
66920;DHT22;53831;52.090;17.026;2023-04-03T12:01:47;6.30;99.90
66920;DHT22;53831;52.090;17.026;2023-04-03T12:08:28;6.30;99.90
66920;DHT22;53831;52.090;17.026;2023-04-03T12:14:48;6.00;99.90
66920;DHT22;53831;52.090;17.026;2023-04-03T12:21:20;6.90;99.90
66920;DHT22;53831;52.090;17.026;2023-04-03T12:27:47;6.80;99.90
66920;DHT22;53831;52.090;17.026;2023-04-03T12:32:51;6.40;99.90
66920;DHT22;53831;52.090;17.026;2023-04-03T12:44:50;6.50;99.90
66920;DHT22;53831;52.090;17.026;2023-04-03T12:50:23;6.90;99.90
66920;DHT22;53831;52.090;17.026;2023-04-03T12:55:30;7.00;99.90
66920;DHT22;53831;52.090;17.026;2023-04-03T13:00:34;8.20;99.90
66920;DHT22;53831;52.090;17.026;2023-04-03T13:07:02;7.50;99.90
66920;DHT22;53831;52.090;17.026;2023-04-03T13:13:24;6.60;99.90
66920;DHT22;53831;52.090;17.026;2023-04-03T13:18:30;6.70;99.90
66920;DHT22;53831;52.090;17.026;2023-04-03T13:23:33;7.50;99.90
66920;DHT22;53831;52.090;17.026;2023-04-03T13:28:36;7.60;99.90
66920;DHT22;53831;52.090;17.026;2023-04-03T13:33:37;8.00;99.90
66920;DHT22;53831;52.090;17.026;2023-04-03T13:38:38;10.10;99.90
66920;DHT22;53831;52.090;17.026;2023-04-03T13:43:39;9.90;99.90
66920;DHT22;53831;52.090;17.026;2023-04-03T13:48:42;7.80;99.90
66920;DHT22;53831;52.090;17.026;2023-04-03T13:53:50;7.50;99.90
66920;DHT22;53831;52.090;17.026;2023-04-03T14:00:33;6.90;99.90
66920;DHT22;53831;52.090;17.026;2023-04-03T14:07:01;6.80;99.90
66920;DHT22;53831;52.090;17.026;2023-04-03T14:13:23;6.70;99.90
66920;DHT22;53831;52.090;17.026;2023-04-03T14:19:45;6.50;99.90
66920;DHT22;53831;52.090;17.026;2023-04-03T14:26:11;6.80;99.90
66920;DHT22;53831;52.090;17.026;2023-04-03T14:32:31;6.90;99.90
66920;DHT22;53831;52.090;17.026;2023-04-03T14:38:53;10.50;99.90
66920;DHT22;53831;52.090;17.026;2023-04-03T14:45:17;14.40;99.90
66920;DHT22;53831;52.090;17.026;2023-04-03T14:51:39;12.70;99.90
66920;DHT22;53831;52.090;17.026;2023-04-03T14:58:01;8.00;99.90
66920;DHT22;53831;52.090;17.026;2023-04-03T15:04:22;6.50;99.90
66920;DHT22;53831;52.090;17.026;2023-04-03T15:10:44;6.70;99.90
66920;DHT22;53831;52.090;17.026;2023-04-03T15:17:06;11.00;99.90
66920;DHT22;53831;52.090;17.026;2023-04-03T15:22:19;12.30;99.90
66920;DHT22;53831;52.090;17.026;2023-04-03T15:28:47;14.00;99.90
66920;DHT22;53831;52.090;17.026;2023-04-03T15:35:03;12.70;99.90
66920;DHT22;53831;52.090;17.026;2023-04-03T15:41:24;9.70;99.90
66920;DHT22;53831;52.090;17.026;2023-04-03T15:46:25;12.10;99.90
66920;DHT22;53831;52.090;17.026;2023-04-03T15:51:26;12.30;99.90
66920;DHT22;53831;52.090;17.026;2023-04-03T15:56:27;11.30;99.90
66920;DHT22;53831;52.090;17.026;2023-04-03T16:01:28;7.90;99.90
66920;DHT22;53831;52.090;17.026;2023-04-03T16:06:31;6.80;99.90
66920;DHT22;53831;52.090;17.026;2023-04-03T16:11:33;6.10;99.90
66920;DHT22;53831;52.090;17.026;2023-04-03T16:17:55;6.10;99.90
66920;DHT22;53831;52.090;17.026;2023-04-03T16:22:57;5.70;99.90
66920;DHT22;53831;52.090;17.026;2023-04-03T16:28:00;5.80;99.90
66920;DHT22;53831;52.090;17.026;2023-04-03T16:33:01;6.10;99.90
66920;DHT22;53831;52.090;17.026;2023-04-03T16:38:02;5.80;99.90
66920;DHT22;53831;52.090;17.026;2023-04-03T16:44:23;5.50;99.90
66920;DHT22;53831;52.090;17.026;2023-04-03T16:50:46;5.30;99.90
66920;DHT22;53831;52.090;17.026;2023-04-03T16:55:49;5.10;99.90
66920;DHT22;53831;52.090;17.026;2023-04-03T17:00:58;4.80;99.90
66920;DHT22;53831;52.090;17.026;2023-04-03T17:05:58;4.70;99.90
66920;DHT22;53831;52.090;17.026;2023-04-03T17:10:59;4.50;99.90
66920;DHT22;53831;52.090;17.026;2023-04-03T17:16:00;4.40;99.90
66920;DHT22;53831;52.090;17.026;2023-04-03T17:21:05;4.30;99.90
66920;DHT22;53831;52.090;17.026;2023-04-03T17:26:09;4.30;99.90
66920;DHT22;53831;52.090;17.026;2023-04-03T17:32:28;4.20;99.90
66920;DHT22;53831;52.090;17.026;2023-04-03T17:38:50;4.00;99.90
66920;DHT22;53831;52.090;17.026;2023-04-03T17:45:11;3.90;99.90
66920;DHT22;53831;52.090;17.026;2023-04-03T17:51:33;3.90;99.90
66920;DHT22;53831;52.090;17.026;2023-04-03T17:57:55;4.00;99.90
66920;DHT22;53831;52.090;17.026;2023-04-03T18:04:17;4.00;99.90
66920;DHT22;53831;52.090;17.026;2023-04-03T18:10:39;4.00;99.90
66920;DHT22;53831;52.090;17.026;2023-04-03T18:17:00;4.00;99.90
66920;DHT22;53831;52.090;17.026;2023-04-03T18:22:03;4.00;99.90
66920;DHT22;53831;52.090;17.026;2023-04-03T18:27:12;4.00;99.90
66920;DHT22;53831;52.090;17.026;2023-04-03T18:32:26;4.00;99.90
66920;DHT22;53831;52.090;17.026;2023-04-03T18:37:27;4.00;99.90
66920;DHT22;53831;52.090;17.026;2023-04-03T18:42:28;4.00;99.90
66920;DHT22;53831;52.090;17.026;2023-04-03T18:47:29;4.00;99.90
66920;DHT22;53831;52.090;17.026;2023-04-03T18:53:51;4.00;99.90
66920;DHT22;53831;52.090;17.026;2023-04-03T19:00:13;4.00;99.90
66920;DHT22;53831;52.090;17.026;2023-04-03T19:05:17;4.00;99.90
66920;DHT22;53831;52.090;17.026;2023-04-03T19:10:19;3.90;99.90
66920;DHT22;53831;52.090;17.026;2023-04-03T19:16:41;3.80;99.90
66920;DHT22;53831;52.090;17.026;2023-04-03T19:23:03;3.90;99.90
66920;DHT22;53831;52.090;17.026;2023-04-03T19:29:24;3.70;99.90
66920;DHT22;53831;52.090;17.026;2023-04-03T19:35:49;3.40;99.90
66920;DHT22;53831;52.090;17.026;2023-04-03T19:40:51;3.10;99.90
66920;DHT22;53831;52.090;17.026;2023-04-03T19:45:52;2.90;99.90
66920;DHT22;53831;52.090;17.026;2023-04-03T19:50:52;2.70;99.90
66920;DHT22;53831;52.090;17.026;2023-04-03T19:55:54;2.60;99.90
66920;DHT22;53831;52.090;17.026;2023-04-03T20:00:56;2.40;99.90
66920;DHT22;53831;52.090;17.026;2023-04-03T20:07:18;2.40;99.90
66920;DHT22;53831;52.090;17.026;2023-04-03T20:13:40;2.60;99.90
66920;DHT22;53831;52.090;17.026;2023-04-03T20:20:02;2.50;99.90
66920;DHT22;53831;52.090;17.026;2023-04-03T20:26:24;2.40;99.90
66920;DHT22;53831;52.090;17.026;2023-04-03T20:32:45;2.20;99.90
66920;DHT22;53831;52.090;17.026;2023-04-03T20:39:07;1.90;99.90
66920;DHT22;53831;52.090;17.026;2023-04-03T20:45:29;1.80;99.90
66920;DHT22;53831;52.090;17.026;2023-04-03T20:51:50;1.90;99.90
66920;DHT22;53831;52.090;17.026;2023-04-03T20:58:11;2.00;99.90
66920;DHT22;53831;52.090;17.026;2023-04-03T21:04:36;2.10;99.90
66920;DHT22;53831;52.090;17.026;2023-04-03T21:22:55;1.60;99.90
66920;DHT22;53831;52.090;17.026;2023-04-03T21:29:17;1.20;99.90
66920;DHT22;53831;52.090;17.026;2023-04-03T21:35:38;1.00;99.90
66920;DHT22;53831;52.090;17.026;2023-04-03T21:42:00;0.80;99.90
66920;DHT22;53831;52.090;17.026;2023-04-03T21:48:22;0.60;99.90
66920;DHT22;53831;52.090;17.026;2023-04-03T21:54:43;0.50;99.90
66920;DHT22;53831;52.090;17.026;2023-04-03T22:01:09;0.50;99.90
66920;DHT22;53831;52.090;17.026;2023-04-03T22:07:30;0.40;99.90
66920;DHT22;53831;52.090;17.026;2023-04-03T22:13:52;0.30;99.90
66920;DHT22;53831;52.090;17.026;2023-04-03T22:20:13;0.30;99.90
66920;DHT22;53831;52.090;17.026;2023-04-03T22:26:35;0.30;99.90
66920;DHT22;53831;52.090;17.026;2023-04-03T22:32:57;0.40;99.90
66920;DHT22;53831;52.090;17.026;2023-04-03T22:39:18;0.40;99.90
66920;DHT22;53831;52.090;17.026;2023-04-03T22:45:46;0.50;99.90
66920;DHT22;53831;52.090;17.026;2023-04-03T22:52:08;0.40;99.90
66920;DHT22;53831;52.090;17.026;2023-04-03T22:58:29;0.40;99.90
66920;DHT22;53831;52.090;17.026;2023-04-03T23:04:51;0.40;99.90
66920;DHT22;53831;52.090;17.026;2023-04-03T23:11:13;0.20;99.90
66920;DHT22;53831;52.090;17.026;2023-04-03T23:17:35;0.10;99.90
66920;DHT22;53831;52.090;17.026;2023-04-03T23:23:56;0.00;99.90
66920;DHT22;53831;52.090;17.026;2023-04-03T23:30:21;-0.10;99.90
66920;DHT22;53831;52.090;17.026;2023-04-03T23:36:42;-0.20;99.90
66920;DHT22;53831;52.090;17.026;2023-04-03T23:43:04;-0.30;99.90
66920;DHT22;53831;52.090;17.026;2023-04-03T23:49:26;-0.40;99.90
66920;DHT22;53831;52.090;17.026;2023-04-03T23:55:48;-0.40;99.90
